createdAt,value
2017-08-31T00:00:20.989Z,28.40
2017-08-31T00:02:48.755Z,28.50
2017-08-31T00:05:16.608Z,28.70
2017-08-31T00:07:44.329Z,28.60
2017-08-31T00:10:12.044Z,28.50
2017-08-31T00:12:39.779Z,28.30
2017-08-31T00:15:07.557Z,28.20
2017-08-31T00:17:35.323Z,28.00
2017-08-31T00:20:03.107Z,28.00
2017-08-31T00:22:30.836Z,27.90
2017-08-31T00:24:58.558Z,27.90
2017-08-31T00:27:26.437Z,27.90
2017-08-31T00:29:54.158Z,27.80
2017-08-31T00:32:21.932Z,27.80
2017-08-31T00:34:49.735Z,27.80
2017-08-31T00:37:17.511Z,27.90
2017-08-31T00:39:46.174Z,28.00
2017-08-31T00:42:13.945Z,28.00
2017-08-31T00:44:41.662Z,27.80
2017-08-31T00:47:09.434Z,27.60
2017-08-31T00:49:37.161Z,27.60
2017-08-31T00:52:04.889Z,27.60
2017-08-31T00:54:32.661Z,27.60
2017-08-31T00:57:00.442Z,27.50
2017-08-31T00:59:28.224Z,27.50
2017-08-31T01:01:56.092Z,27.50
2017-08-31T01:04:23.814Z,27.40
2017-08-31T01:06:51.531Z,27.50
2017-08-31T01:09:19.336Z,27.40
2017-08-31T01:11:47.119Z,27.40
2017-08-31T01:14:14.925Z,27.40
2017-08-31T01:16:42.719Z,27.30
2017-08-31T01:19:10.487Z,27.30
2017-08-31T01:21:38.253Z,27.20
2017-08-31T01:24:05.970Z,27.20
2017-08-31T01:26:33.739Z,27.10
2017-08-31T01:29:01.507Z,27.10
2017-08-31T01:31:29.229Z,27.10
2017-08-31T01:33:56.945Z,27.00
2017-08-31T01:36:24.674Z,27.00
2017-08-31T01:38:52.419Z,27.00
2017-08-31T01:41:20.189Z,27.00
2017-08-31T01:43:47.909Z,26.90
2017-08-31T01:46:15.780Z,26.90
2017-08-31T01:48:43.488Z,26.80
2017-08-31T01:51:11.271Z,26.80
2017-08-31T01:53:39.139Z,26.80
2017-08-31T01:56:06.912Z,26.70
2017-08-31T01:58:34.629Z,26.60
2017-08-31T02:01:02.407Z,26.50
2017-08-31T02:03:30.181Z,26.40
2017-08-31T02:05:57.948Z,26.30
2017-08-31T02:08:25.685Z,26.20
2017-08-31T02:10:53.455Z,26.20
2017-08-31T02:13:21.195Z,26.20
2017-08-31T02:15:48.946Z,26.20
2017-08-31T02:18:16.677Z,26.30
2017-08-31T02:20:44.399Z,26.30
2017-08-31T02:23:12.180Z,26.30
2017-08-31T02:25:39.895Z,26.30
2017-08-31T02:28:07.680Z,26.30
2017-08-31T02:30:35.475Z,26.30
2017-08-31T02:33:03.259Z,26.20
2017-08-31T02:35:31.033Z,26.20
2017-08-31T02:37:58.845Z,26.10
2017-08-31T02:40:26.582Z,26.00
2017-08-31T02:42:54.294Z,26.00
2017-08-31T02:45:22.156Z,26.10
2017-08-31T02:47:49.872Z,26.10
2017-08-31T02:50:17.649Z,26.10
2017-08-31T02:52:45.466Z,26.10
2017-08-31T02:55:13.178Z,26.10
2017-08-31T02:57:40.900Z,26.00
2017-08-31T03:00:08.714Z,26.00
2017-08-31T03:02:36.426Z,25.90
2017-08-31T03:05:04.199Z,25.90
2017-08-31T03:07:32.058Z,25.80
2017-08-31T03:09:59.777Z,25.80
2017-08-31T03:12:27.566Z,25.80
2017-08-31T03:14:55.387Z,25.80
2017-08-31T03:17:23.109Z,25.70
2017-08-31T03:19:50.838Z,25.70
2017-08-31T03:22:18.637Z,25.70
2017-08-31T03:24:46.368Z,25.60
2017-08-31T03:27:14.092Z,25.60
2017-08-31T03:29:41.824Z,25.60
2017-08-31T03:32:09.594Z,25.70
2017-08-31T03:34:37.321Z,25.60
2017-08-31T03:37:05.180Z,25.70
2017-08-31T03:39:32.891Z,25.60
2017-08-31T03:42:00.612Z,25.50
2017-08-31T03:44:28.344Z,25.60
2017-08-31T03:46:56.074Z,25.50
2017-08-31T03:49:23.864Z,25.50
2017-08-31T03:51:51.597Z,25.50
2017-08-31T03:54:19.373Z,25.60
2017-08-31T03:56:47.087Z,25.60
2017-08-31T03:59:14.908Z,25.60
2017-08-31T04:01:42.637Z,25.70
2017-08-31T04:04:10.419Z,25.50
2017-08-31T04:06:38.167Z,25.40
2017-08-31T04:09:05.963Z,25.40
2017-08-31T04:11:33.689Z,25.50
2017-08-31T04:14:01.556Z,25.50
2017-08-31T04:16:29.288Z,25.40
2017-08-31T04:18:57.066Z,25.30
2017-08-31T04:21:24.940Z,25.40
2017-08-31T04:23:52.722Z,25.40
2017-08-31T04:26:20.509Z,25.50
2017-08-31T04:28:48.287Z,25.50
2017-08-31T04:31:16.071Z,25.50
2017-08-31T04:33:43.872Z,25.50
2017-08-31T04:36:11.647Z,25.40
2017-08-31T04:38:39.436Z,25.20
2017-08-31T04:41:07.171Z,25.20
2017-08-31T04:43:35.060Z,25.20
2017-08-31T04:46:02.843Z,25.10
2017-08-31T04:48:30.615Z,25.10
2017-08-31T04:50:58.331Z,25.10
2017-08-31T04:53:26.111Z,25.00
2017-08-31T04:55:53.835Z,25.10
2017-08-31T04:58:21.657Z,24.90
2017-08-31T05:00:49.436Z,25.00
2017-08-31T05:03:17.174Z,25.10
2017-08-31T05:05:44.951Z,25.00
2017-08-31T05:08:12.672Z,25.00
2017-08-31T05:10:40.411Z,25.00
2017-08-31T05:13:08.271Z,25.00
2017-08-31T05:15:36.057Z,25.00
2017-08-31T05:18:03.828Z,24.90
2017-08-31T05:20:31.611Z,25.00
2017-08-31T05:22:59.344Z,25.00
2017-08-31T05:25:27.099Z,25.10
2017-08-31T05:27:54.835Z,25.10
2017-08-31T05:30:22.609Z,25.10
2017-08-31T05:32:50.340Z,25.10
2017-08-31T05:35:18.211Z,25.10
2017-08-31T05:37:45.947Z,25.10
2017-08-31T05:40:13.676Z,25.10
2017-08-31T05:42:41.463Z,25.10
2017-08-31T05:45:09.186Z,25.20
2017-08-31T05:47:36.960Z,25.20
2017-08-31T05:50:04.854Z,25.10
2017-08-31T05:52:32.645Z,25.10
2017-08-31T05:55:00.420Z,25.20
2017-08-31T05:57:28.228Z,25.20
2017-08-31T05:59:56.035Z,25.30
2017-08-31T06:02:23.841Z,25.40
2017-08-31T06:04:51.550Z,25.30
2017-08-31T06:07:19.335Z,25.40
2017-08-31T06:09:47.072Z,25.40
2017-08-31T06:12:14.800Z,25.50
2017-08-31T06:14:42.529Z,25.50
2017-08-31T06:17:10.299Z,25.50
2017-08-31T06:19:38.029Z,25.40
2017-08-31T06:22:05.759Z,25.50
2017-08-31T06:24:33.476Z,25.50
2017-08-31T06:27:01.289Z,25.50
2017-08-31T06:29:29.094Z,25.60
2017-08-31T06:31:56.807Z,25.70
2017-08-31T06:34:24.673Z,25.70
2017-08-31T06:36:52.456Z,25.70
2017-08-31T06:39:20.228Z,25.60
2017-08-31T06:41:48.043Z,25.60
2017-08-31T06:44:15.771Z,25.70
2017-08-31T06:46:43.557Z,25.60
2017-08-31T06:49:11.420Z,25.50
2017-08-31T06:51:39.205Z,25.60
2017-08-31T06:54:06.981Z,25.70
2017-08-31T06:56:34.792Z,25.60
2017-08-31T06:59:02.568Z,25.50
2017-08-31T07:01:30.344Z,25.60
2017-08-31T07:03:58.223Z,25.60
2017-08-31T07:06:26.012Z,25.70
2017-08-31T07:08:53.827Z,25.80
2017-08-31T07:11:21.615Z,25.90
2017-08-31T07:13:49.356Z,26.00
2017-08-31T07:16:17.076Z,26.10
2017-08-31T07:18:44.878Z,26.20
2017-08-31T07:21:12.656Z,26.20
2017-08-31T07:23:40.449Z,26.20
2017-08-31T07:26:08.197Z,26.10
2017-08-31T07:28:35.917Z,26.30
2017-08-31T07:31:03.660Z,26.30
2017-08-31T07:33:31.471Z,26.10
2017-08-31T07:35:59.195Z,26.20
2017-08-31T07:38:27.210Z,26.10
2017-08-31T07:40:55.020Z,26.20
2017-08-31T07:43:22.736Z,26.20
2017-08-31T07:45:50.456Z,26.30
2017-08-31T07:48:18.256Z,26.30
2017-08-31T07:50:46.027Z,26.40
2017-08-31T07:53:13.831Z,26.50
2017-08-31T07:55:41.573Z,26.50
2017-08-31T07:58:09.367Z,26.60
2017-08-31T08:00:37.085Z,26.60
2017-08-31T08:03:04.871Z,26.50
2017-08-31T08:05:32.606Z,26.50
2017-08-31T08:08:00.380Z,26.60
2017-08-31T08:10:28.262Z,26.50
2017-08-31T08:12:55.996Z,26.50
2017-08-31T08:15:23.721Z,26.50
2017-08-31T08:17:51.532Z,26.40
2017-08-31T08:20:19.288Z,26.50
2017-08-31T08:22:47.073Z,26.60
2017-08-31T08:25:14.863Z,26.60
2017-08-31T08:27:42.643Z,26.70
2017-08-31T08:30:10.376Z,26.80
2017-08-31T08:32:38.258Z,26.80
2017-08-31T08:35:05.992Z,26.90
2017-08-31T08:37:33.780Z,26.90
2017-08-31T08:40:01.513Z,26.90
2017-08-31T08:42:29.244Z,27.00
2017-08-31T08:44:57.037Z,27.10
2017-08-31T08:47:24.781Z,27.10
2017-08-31T08:49:52.513Z,27.20
2017-08-31T08:52:20.190Z,27.20
2017-08-31T08:54:47.992Z,27.20
2017-08-31T08:57:15.740Z,27.20
2017-08-31T08:59:43.527Z,27.30
2017-08-31T09:02:11.274Z,27.40
2017-08-31T09:04:39.047Z,27.40
2017-08-31T09:07:06.832Z,27.50
2017-08-31T09:09:34.651Z,27.50
2017-08-31T09:12:02.371Z,27.60
2017-08-31T09:14:30.156Z,27.70
2017-08-31T09:16:57.956Z,27.70
2017-08-31T09:19:25.731Z,27.80
2017-08-31T09:21:53.459Z,27.80
2017-08-31T09:24:21.172Z,27.80
2017-08-31T09:26:48.894Z,27.80
2017-08-31T09:29:16.692Z,27.90
2017-08-31T09:31:44.427Z,27.90
2017-08-31T09:34:12.222Z,28.20
2017-08-31T09:36:39.968Z,28.10
2017-08-31T09:39:07.697Z,28.10
2017-08-31T09:41:35.422Z,28.10
2017-08-31T09:44:03.153Z,28.10
2017-08-31T09:46:30.888Z,28.10
2017-08-31T09:48:58.668Z,28.10
2017-08-31T09:51:26.444Z,28.10
2017-08-31T09:53:54.171Z,28.10
2017-08-31T09:56:21.896Z,28.30
2017-08-31T09:58:49.692Z,28.50
2017-08-31T10:01:17.562Z,28.50
2017-08-31T10:03:45.289Z,28.50
2017-08-31T10:06:13.020Z,28.50
2017-08-31T10:08:40.876Z,28.40
2017-08-31T10:11:08.669Z,28.30
2017-08-31T10:13:36.405Z,28.30
2017-08-31T10:16:04.152Z,28.30
2017-08-31T10:18:31.927Z,28.40
2017-08-31T10:20:59.708Z,28.40
2017-08-31T10:23:27.433Z,28.40
2017-08-31T10:25:55.153Z,28.50
2017-08-31T10:28:22.879Z,28.40
2017-08-31T10:30:50.660Z,28.40
2017-08-31T10:33:18.428Z,28.40
2017-08-31T10:35:46.152Z,28.40
2017-08-31T10:38:14.020Z,28.50
2017-08-31T10:40:41.792Z,28.60
2017-08-31T10:43:09.575Z,28.50
2017-08-31T10:45:37.308Z,28.70
2017-08-31T10:48:05.090Z,28.70
2017-08-31T10:50:32.874Z,28.60
2017-08-31T10:53:00.695Z,28.70
2017-08-31T10:55:28.504Z,28.70
2017-08-31T10:57:56.227Z,28.70
2017-08-31T11:00:23.968Z,28.70
2017-08-31T11:02:51.686Z,28.70
2017-08-31T11:05:19.456Z,28.60
2017-08-31T11:07:47.231Z,28.70
2017-08-31T11:10:15.003Z,28.70
2017-08-31T11:12:42.789Z,28.80
2017-08-31T11:15:10.583Z,28.80
2017-08-31T11:17:38.338Z,28.80
2017-08-31T11:20:06.056Z,28.70
2017-08-31T11:22:33.777Z,28.90
2017-08-31T11:25:01.505Z,29.20
2017-08-31T11:27:29.281Z,29.10
2017-08-31T11:29:57.228Z,29.10
2017-08-31T11:32:25.082Z,29.00
2017-08-31T11:34:52.910Z,29.30
2017-08-31T11:37:20.595Z,29.30
2017-08-31T11:39:48.322Z,29.30
2017-08-31T11:42:16.091Z,29.20
2017-08-31T11:44:43.859Z,29.10
2017-08-31T11:47:11.590Z,29.00
2017-08-31T11:49:39.380Z,29.00
2017-08-31T11:52:07.239Z,29.30
2017-08-31T11:54:34.955Z,29.30
2017-08-31T11:57:02.698Z,29.20
2017-08-31T11:59:30.497Z,29.60
2017-08-31T12:01:58.229Z,29.80
2017-08-31T12:04:26.007Z,29.60
2017-08-31T12:06:53.863Z,29.80
2017-08-31T12:09:21.580Z,29.70
2017-08-31T12:11:49.296Z,29.90
2017-08-31T12:14:17.188Z,29.90
2017-08-31T12:16:44.903Z,30.40
2017-08-31T12:19:12.611Z,30.20
2017-08-31T12:21:40.491Z,30.40
2017-08-31T12:24:08.195Z,30.10
2017-08-31T12:26:35.986Z,29.90
2017-08-31T12:29:03.761Z,29.80
2017-08-31T12:31:31.529Z,29.80
2017-08-31T12:33:59.295Z,30.10
2017-08-31T12:36:27.115Z,30.00
2017-08-31T12:38:54.907Z,30.00
2017-08-31T12:41:22.975Z,29.90
2017-08-31T12:43:50.777Z,30.10
2017-08-31T12:46:18.506Z,30.30
2017-08-31T12:48:46.223Z,30.20
2017-08-31T12:51:14.089Z,30.10
2017-08-31T12:53:41.803Z,30.00
2017-08-31T12:56:09.581Z,29.80
2017-08-31T12:58:37.387Z,29.70
2017-08-31T13:01:05.111Z,29.50
2017-08-31T13:03:32.880Z,29.70
2017-08-31T13:06:00.596Z,30.10
2017-08-31T13:08:28.372Z,30.20
2017-08-31T13:10:56.084Z,30.40
2017-08-31T13:13:23.858Z,30.10
2017-08-31T13:15:51.635Z,30.20
2017-08-31T13:18:19.427Z,30.40
2017-08-31T13:20:47.208Z,30.50
2017-08-31T13:23:14.989Z,30.50
2017-08-31T13:25:42.700Z,30.80
2017-08-31T13:28:10.437Z,31.50
2017-08-31T13:30:38.155Z,31.70
2017-08-31T13:33:05.892Z,31.40
2017-08-31T13:35:33.724Z,31.10
2017-08-31T13:38:01.543Z,30.90
2017-08-31T13:40:29.262Z,31.00
2017-08-31T13:42:56.985Z,30.90
2017-08-31T13:45:24.787Z,30.80
2017-08-31T13:47:52.535Z,30.80
2017-08-31T13:50:20.366Z,30.80
2017-08-31T13:52:48.317Z,31.10
2017-08-31T13:55:16.101Z,30.80
2017-08-31T13:57:43.913Z,30.90
2017-08-31T14:00:11.692Z,31.10
2017-08-31T14:02:39.458Z,30.80
2017-08-31T14:05:07.173Z,30.80
2017-08-31T14:07:34.901Z,30.50
2017-08-31T14:10:02.625Z,30.40
2017-08-31T14:12:30.451Z,30.30
2017-08-31T14:14:58.224Z,30.10
2017-08-31T14:17:26.035Z,30.60
2017-08-31T14:19:53.887Z,30.40
2017-08-31T14:22:21.660Z,30.20
2017-08-31T14:24:49.442Z,30.00
2017-08-31T14:27:17.285Z,30.00
2017-08-31T14:29:45.010Z,29.90
2017-08-31T14:32:12.781Z,30.60
2017-08-31T14:34:40.690Z,30.80
2017-08-31T14:37:08.480Z,30.70
2017-08-31T14:39:36.205Z,30.50
2017-08-31T14:42:03.980Z,30.20
2017-08-31T14:44:31.729Z,30.00
2017-08-31T14:46:59.448Z,29.90
2017-08-31T14:49:27.237Z,30.00
2017-08-31T14:51:55.003Z,30.10
2017-08-31T14:54:22.780Z,30.00
2017-08-31T14:56:50.644Z,30.00
2017-08-31T14:59:18.360Z,30.60
2017-08-31T15:01:46.153Z,31.40
2017-08-31T15:04:13.880Z,31.70
2017-08-31T15:06:41.664Z,31.70
2017-08-31T15:09:09.389Z,31.70
2017-08-31T15:11:37.132Z,31.30
2017-08-31T15:14:04.857Z,30.80
2017-08-31T15:16:32.619Z,30.40
2017-08-31T15:19:00.437Z,30.20
2017-08-31T15:21:28.186Z,30.10
2017-08-31T15:23:55.916Z,30.10
2017-08-31T15:26:23.812Z,30.10
2017-08-31T15:28:51.559Z,30.00
2017-08-31T15:31:19.360Z,30.00
2017-08-31T15:33:47.146Z,30.00
2017-08-31T15:36:14.946Z,29.90
2017-08-31T15:38:42.686Z,29.90
2017-08-31T15:41:10.561Z,30.00
2017-08-31T15:43:38.327Z,30.20
2017-08-31T15:46:06.035Z,30.50
2017-08-31T15:48:33.839Z,30.70
2017-08-31T15:51:01.568Z,30.80
2017-08-31T15:53:29.296Z,31.10
2017-08-31T15:55:57.077Z,31.00
2017-08-31T15:58:24.797Z,30.90
2017-08-31T16:00:52.512Z,30.60
2017-08-31T16:03:20.307Z,30.40
2017-08-31T16:05:48.115Z,30.20
2017-08-31T16:08:15.882Z,30.10
2017-08-31T16:10:43.596Z,30.10
2017-08-31T16:13:11.316Z,30.20
2017-08-31T16:15:39.048Z,30.10
2017-08-31T16:18:06.770Z,30.30
2017-08-31T16:20:34.484Z,30.30
2017-08-31T16:23:02.264Z,30.30
2017-08-31T16:25:30.074Z,30.70
2017-08-31T16:27:57.860Z,30.90
2017-08-31T16:30:25.596Z,30.80
2017-08-31T16:32:53.401Z,30.80
2017-08-31T16:35:21.194Z,30.70
2017-08-31T16:37:48.914Z,30.50
2017-08-31T16:40:16.721Z,30.80
2017-08-31T16:42:44.537Z,30.70
2017-08-31T16:45:12.341Z,30.60
2017-08-31T16:47:40.148Z,30.80
2017-08-31T16:50:07.923Z,30.90
2017-08-31T16:52:35.647Z,30.90
2017-08-31T16:55:03.543Z,30.70
2017-08-31T16:57:31.315Z,30.50
2017-08-31T16:59:59.037Z,30.40
2017-08-31T17:02:26.869Z,30.40
2017-08-31T17:04:54.691Z,30.30
2017-08-31T17:07:22.423Z,30.30
2017-08-31T17:09:50.162Z,30.30
2017-08-31T17:12:19.369Z,30.30
2017-08-31T17:14:49.400Z,30.30
2017-08-31T17:17:19.186Z,30.60
2017-08-31T17:19:48.849Z,30.50
2017-08-31T17:22:16.731Z,30.40
2017-08-31T17:24:44.448Z,30.30
2017-08-31T17:27:12.311Z,30.20
2017-08-31T17:29:40.088Z,30.10
2017-08-31T17:32:07.815Z,30.10
2017-08-31T17:34:35.556Z,30.10
2017-08-31T17:37:03.345Z,30.10
2017-08-31T17:39:31.973Z,30.10
2017-08-31T17:42:00.759Z,30.10
2017-08-31T17:44:28.475Z,30.10
2017-08-31T17:46:56.217Z,30.10
2017-08-31T17:49:24.001Z,30.10
2017-08-31T17:51:53.415Z,30.20
2017-08-31T17:54:21.144Z,30.20
2017-08-31T17:56:48.941Z,30.20
2017-08-31T17:59:16.725Z,30.20
2017-08-31T18:01:44.601Z,30.30
2017-08-31T18:04:12.382Z,30.40
2017-08-31T18:06:40.174Z,30.40
2017-08-31T18:09:08.000Z,30.50
2017-08-31T18:11:35.797Z,30.50
2017-08-31T18:14:03.544Z,30.50
2017-08-31T18:16:31.412Z,30.50
2017-08-31T18:18:59.201Z,30.50
2017-08-31T18:21:28.286Z,30.50
2017-08-31T18:23:56.217Z,30.50
2017-08-31T18:26:24.009Z,30.40
2017-08-31T18:28:51.787Z,30.50
2017-08-31T18:31:19.602Z,30.60
2017-08-31T18:33:47.337Z,30.60
2017-08-31T18:36:15.091Z,30.50
2017-08-31T18:38:43.219Z,30.60
2017-08-31T18:41:11.026Z,30.60
2017-08-31T18:43:38.758Z,30.60
2017-08-31T18:46:06.491Z,30.60
2017-08-31T18:48:34.200Z,30.60
2017-08-31T18:51:01.924Z,30.50
2017-08-31T18:53:29.790Z,30.50
2017-08-31T18:55:57.652Z,30.50
2017-08-31T18:58:25.508Z,30.60
2017-08-31T19:00:53.262Z,30.60
2017-08-31T19:03:21.006Z,30.70
2017-08-31T19:05:48.793Z,30.70
2017-08-31T19:08:16.616Z,30.80
2017-08-31T19:10:44.363Z,30.80
2017-08-31T19:13:12.140Z,30.90
2017-08-31T19:15:39.867Z,30.90
2017-08-31T19:18:07.597Z,30.80
2017-08-31T19:20:35.397Z,30.90
2017-08-31T19:23:03.245Z,30.80
2017-08-31T19:25:31.064Z,30.80
2017-08-31T19:27:59.089Z,30.80
2017-08-31T19:30:26.887Z,30.80
2017-08-31T19:32:54.652Z,30.80
2017-08-31T19:35:22.382Z,30.80
2017-08-31T19:37:50.111Z,30.80
2017-08-31T19:40:17.835Z,30.80
2017-08-31T19:42:45.928Z,30.80
2017-08-31T19:45:13.983Z,30.80
2017-08-31T19:47:41.828Z,30.80
2017-08-31T19:50:10.630Z,30.80
2017-08-31T19:52:38.386Z,30.80
2017-08-31T19:55:06.180Z,30.80
2017-08-31T19:57:34.356Z,30.70
2017-08-31T20:00:02.102Z,30.70
2017-08-31T20:02:29.829Z,30.70
2017-08-31T20:04:58.330Z,30.70
2017-08-31T20:07:26.865Z,30.70
2017-08-31T20:09:54.886Z,30.60
2017-08-31T20:12:22.678Z,30.60
2017-08-31T20:14:50.549Z,30.60
2017-08-31T20:17:18.524Z,30.50
2017-08-31T20:19:46.248Z,30.60
2017-08-31T20:22:13.956Z,30.60
2017-08-31T20:24:42.430Z,30.60
2017-08-31T20:27:10.288Z,30.60
2017-08-31T20:29:38.074Z,30.60
2017-08-31T20:32:05.936Z,30.70
2017-08-31T20:34:33.715Z,30.70
2017-08-31T20:37:01.483Z,30.60
2017-08-31T20:39:29.264Z,30.60
2017-08-31T20:41:57.031Z,30.60
2017-08-31T20:44:24.777Z,30.60
2017-08-31T20:46:52.518Z,30.60
2017-08-31T20:49:21.074Z,30.60
2017-08-31T20:51:48.835Z,30.60
2017-08-31T20:54:16.600Z,30.60
2017-08-31T20:56:44.317Z,30.60
2017-08-31T20:59:12.052Z,30.60
2017-08-31T21:01:40.687Z,30.70
2017-08-31T21:04:08.569Z,30.70
2017-08-31T21:06:36.864Z,30.70
2017-08-31T21:09:04.862Z,30.60
2017-08-31T21:11:32.700Z,30.60
2017-08-31T21:14:00.503Z,30.50
2017-08-31T21:16:28.313Z,30.50
2017-08-31T21:18:56.848Z,30.50
2017-08-31T21:22:13.925Z,30.50
2017-08-31T21:24:45.621Z,30.40
2017-08-31T21:27:13.516Z,30.30
2017-08-31T21:29:41.863Z,30.30
2017-08-31T21:32:09.683Z,30.30
2017-08-31T21:34:37.510Z,30.30
2017-08-31T21:37:05.228Z,30.40
2017-08-31T21:39:32.949Z,30.40
2017-08-31T21:42:00.665Z,30.40
2017-08-31T21:44:28.390Z,30.40
2017-08-31T21:46:56.124Z,30.30
2017-08-31T21:49:23.907Z,30.40
2017-08-31T21:51:51.639Z,30.50
2017-08-31T21:54:19.369Z,30.50
2017-08-31T21:56:47.179Z,30.50
2017-08-31T21:59:14.964Z,30.50
2017-08-31T22:01:42.750Z,30.50
2017-08-31T22:04:10.538Z,30.50
2017-08-31T22:06:38.364Z,30.40
2017-08-31T22:09:06.100Z,30.40
2017-08-31T22:11:33.900Z,30.30
2017-08-31T22:14:01.629Z,30.30
2017-08-31T22:16:29.347Z,30.20
2017-08-31T22:18:57.152Z,30.20
2017-08-31T22:21:24.923Z,30.20
2017-08-31T22:23:52.643Z,30.20
2017-08-31T22:26:20.385Z,30.10
2017-08-31T22:28:48.165Z,30.00
2017-08-31T22:31:16.654Z,30.00
2017-08-31T22:33:44.448Z,30.00
2017-08-31T22:36:12.181Z,30.00
2017-08-31T22:38:39.891Z,30.00
2017-08-31T22:41:07.695Z,30.00
2017-08-31T22:43:35.472Z,30.10
2017-08-31T22:46:03.211Z,30.00
2017-08-31T22:48:31.093Z,29.90
2017-08-31T22:50:58.834Z,29.90
2017-08-31T22:53:26.553Z,29.90
2017-08-31T22:55:54.368Z,29.90
2017-08-31T22:58:22.083Z,29.90
2017-08-31T23:00:49.872Z,29.90
2017-08-31T23:03:17.606Z,30.00
2017-08-31T23:05:45.384Z,30.00
2017-08-31T23:08:13.106Z,29.90
2017-08-31T23:10:40.916Z,29.90
2017-08-31T23:13:08.707Z,29.90
2017-08-31T23:15:36.449Z,29.80
2017-08-31T23:18:04.167Z,29.80
2017-08-31T23:20:31.874Z,29.80
2017-08-31T23:22:59.653Z,29.70
2017-08-31T23:25:27.439Z,29.70
2017-08-31T23:27:55.184Z,29.70
2017-08-31T23:30:22.964Z,29.70
2017-08-31T23:32:50.765Z,29.80
2017-08-31T23:35:18.492Z,29.70
2017-08-31T23:37:46.308Z,29.70
2017-08-31T23:40:14.088Z,29.80
2017-08-31T23:42:41.821Z,29.80
2017-08-31T23:45:09.623Z,29.80
2017-08-31T23:47:37.503Z,29.80
2017-08-31T23:50:05.289Z,29.70
2017-08-31T23:52:33.002Z,29.80
2017-08-31T23:55:00.787Z,29.70
2017-08-31T23:57:28.568Z,29.70
2017-08-31T23:59:56.300Z,29.60
